Time;durP1;ratioP1;P1;durP2;ratioP2;P2;SDS_P1;SDS_P2;PMS_P1;PMS_P2;Temp;Humidity;BMP_temperature;BMP_pressure;BME280_temperature;BME280_humidity;BME280_pressure;Samples;Min_cycle;Max_cycle;Signal;HPM_P1;HPM_P2
2023/04/18 00:02:21;;;;;;;15.70;9.50;;;5.80;93.90;;;;;;4993741;28;20045;-70
2023/04/18 00:04:49;;;;;;;15.30;9.52;;;5.80;94.20;;;;;;4985577;28;20058;-71
2023/04/18 00:07:15;;;;;;;16.80;9.82;;;5.90;94.00;;;;;;4976809;28;20057;-70
2023/04/18 00:09:42;;;;;;;17.52;10.00;;;5.80;94.50;;;;;;4994366;28;20045;-71
2023/04/18 00:12:09;;;;;;;17.35;9.50;;;5.90;94.40;;;;;;4990461;28;20414;-71
2023/04/18 00:14:36;;;;;;;17.10;9.73;;;5.90;94.80;;;;;;4994085;28;20363;-71
2023/04/18 00:17:02;;;;;;;14.02;9.13;;;5.90;94.90;;;;;;4991618;28;20041;-70
2023/04/18 00:19:27;;;;;;;15.15;9.15;;;5.80;94.80;;;;;;4991363;28;20147;-70
2023/04/18 00:21:53;;;;;;;16.33;9.23;;;5.80;94.70;;;;;;4985670;28;20046;-71
2023/04/18 00:24:19;;;;;;;15.52;8.98;;;5.80;94.70;;;;;;4979883;28;20034;-71
2023/04/18 00:26:44;;;;;;;16.85;9.23;;;5.80;95.00;;;;;;4981861;28;20539;-72
2023/04/18 00:29:10;;;;;;;16.63;9.27;;;5.70;95.30;;;;;;4967671;28;20131;-71
2023/04/18 00:31:36;;;;;;;16.73;9.57;;;5.70;95.50;;;;;;4994651;28;20726;-71
2023/04/18 00:34:02;;;;;;;16.17;9.68;;;5.70;95.70;;;;;;4980003;28;20042;-71
2023/04/18 00:36:27;;;;;;;16.13;10.20;;;5.70;95.80;;;;;;4985677;28;20120;-70
2023/04/18 00:38:53;;;;;;;12.25;9.02;;;5.60;96.10;;;;;;4994568;28;20041;-71
2023/04/18 00:41:20;;;;;;;19.70;10.07;;;5.60;96.90;;;;;;4984502;28;20042;-71
2023/04/18 00:43:46;;;;;;;15.50;9.93;;;5.50;97.00;;;;;;4978681;28;20048;-71
2023/04/18 00:46:11;;;;;;;17.30;9.20;;;5.50;97.30;;;;;;4966555;28;20462;-71
2023/04/18 00:48:38;;;;;;;16.10;9.07;;;5.40;97.40;;;;;;4979594;28;20466;-71
2023/04/18 00:51:06;;;;;;;17.33;9.80;;;5.40;97.90;;;;;;4978846;28;20646;-71
2023/04/18 00:53:32;;;;;;;16.60;9.70;;;5.40;98.20;;;;;;4982802;28;20034;-71
2023/04/18 00:55:57;;;;;;;17.02;9.43;;;5.40;98.30;;;;;;4983842;28;20042;-71
2023/04/18 00:58:23;;;;;;;15.23;9.75;;;5.30;98.40;;;;;;4987078;28;20053;-72
2023/04/18 01:00:49;;;;;;;16.83;9.45;;;5.30;98.80;;;;;;5018048;28;20153;-71
2023/04/18 01:03:16;;;;;;;20.25;9.35;;;5.30;99.00;;;;;;5003597;28;20059;-71
2023/04/18 01:05:43;;;;;;;14.98;9.15;;;5.30;99.60;;;;;;5003347;28;20128;-71
2023/04/18 01:08:09;;;;;;;15.85;9.23;;;5.30;99.80;;;;;;5010478;28;20049;-71
2023/04/18 01:10:36;;;;;;;17.55;9.48;;;5.30;99.90;;;;;;5008423;28;20393;-71
2023/04/18 01:13:19;;;;;;;15.32;9.20;;;5.20;99.90;;;;;;5000494;28;20041;-71
2023/04/18 01:15:49;;;;;;;15.25;9.13;;;5.20;99.90;;;;;;5009346;28;20785;-71
2023/04/18 01:18:15;;;;;;;15.70;8.93;;;5.20;99.90;;;;;;5007152;28;20049;-71
2023/04/18 01:20:46;;;;;;;15.70;8.43;;;5.20;99.90;;;;;;5006167;28;20091;-71
2023/04/18 01:23:11;;;;;;;;;;;5.20;99.90;;;;;;5006346;28;20049;-71
2023/04/18 01:25:37;;;;;;;14.02;8.55;;;5.10;99.90;;;;;;5001555;28;19925;-71
2023/04/18 01:28:05;;;;;;;16.83;8.70;;;5.10;99.90;;;;;;5007833;28;22519;-71
2023/04/18 01:30:31;;;;;;;14.27;9.02;;;5.20;99.90;;;;;;5006786;28;20041;-71
2023/04/18 01:32:57;;;;;;;16.88;8.63;;;5.20;99.90;;;;;;4985511;28;20083;-71
2023/04/18 01:35:22;;;;;;;17.30;9.80;;;5.20;99.90;;;;;;5003736;28;20038;-72
2023/04/18 01:37:48;;;;;;;13.90;8.57;;;5.20;99.90;;;;;;5008018;28;20465;-72
2023/04/18 01:40:14;;;;;;;13.68;8.25;;;5.30;99.90;;;;;;5010340;28;20056;-71
2023/04/18 01:42:39;;;;;;;15.40;9.52;;;5.30;99.90;;;;;;4997151;28;20048;-70
2023/04/18 01:45:06;;;;;;;15.18;9.27;;;5.30;99.90;;;;;;5002715;28;20042;-70
2023/04/18 01:47:31;;;;;;;15.75;9.30;;;5.30;99.90;;;;;;4991341;28;20100;-71
2023/04/18 01:49:57;;;;;;;15.52;9.00;;;5.30;99.90;;;;;;4995997;28;20049;-70
2023/04/18 01:52:22;;;;;;;16.63;9.30;;;5.30;99.90;;;;;;5013194;28;20473;-71
2023/04/18 01:54:48;;;;;;;14.40;8.93;;;5.20;99.90;;;;;;5013990;28;20029;-71
2023/04/18 01:57:14;;;;;;;17.95;9.90;;;5.20;99.90;;;;;;5012859;28;20041;-70
2023/04/18 01:59:39;;;;;;;18.05;9.57;;;5.20;99.90;;;;;;5013971;28;20092;-71
2023/04/18 02:02:05;;;;;;;16.75;9.70;;;5.20;99.90;;;;;;5012053;28;20439;-71
2023/04/18 02:04:30;;;;;;;16.65;9.70;;;5.20;99.90;;;;;;5014253;28;20037;-70
2023/04/18 02:06:56;;;;;;;16.83;9.90;;;5.30;99.90;;;;;;5013630;28;20059;-70
2023/04/18 02:09:21;;;;;;;17.20;10.00;;;5.30;99.90;;;;;;5014697;28;20050;-71
2023/04/18 02:11:47;;;;;;;14.98;10.15;;;5.40;99.90;;;;;;5013403;28;20045;-71
2023/04/18 02:14:12;;;;;;;16.45;9.48;;;5.40;99.90;;;;;;5011411;28;20457;-71
2023/04/18 02:16:38;;;;;;;17.75;9.88;;;5.40;99.90;;;;;;5013871;28;20851;-71
2023/04/18 02:19:05;;;;;;;18.33;9.48;;;5.50;99.90;;;;;;5013631;28;20073;-71
2023/04/18 02:21:30;;;;;;;16.48;9.57;;;5.50;99.90;;;;;;4993107;28;20065;-71
2023/04/18 02:23:56;;;;;;;18.13;10.23;;;5.50;99.90;;;;;;4993557;28;20143;-71
2023/04/18 02:26:22;;;;;;;18.90;10.38;;;5.50;99.90;;;;;;5009793;28;20037;-71
2023/04/18 02:28:47;;;;;;;17.35;9.88;;;5.60;99.90;;;;;;5010600;28;20049;-71
2023/04/18 02:31:14;;;;;;;16.83;9.75;;;5.60;99.90;;;;;;5007950;28;20478;-71
2023/04/18 02:33:41;;;;;;;18.92;9.75;;;5.60;99.90;;;;;;5022725;28;20029;-71
2023/04/18 02:36:07;;;;;;;20.33;9.48;;;5.60;99.90;;;;;;5003630;28;20048;-71
2023/04/18 02:38:33;;;;;;;19.52;10.23;;;5.60;99.90;;;;;;5008454;28;20038;-71
2023/04/18 02:40:59;;;;;;;18.23;10.05;;;5.60;99.90;;;;;;4996357;28;20125;-71
2023/04/18 02:43:24;;;;;;;19.65;9.90;;;5.70;99.90;;;;;;4995010;28;20037;-71
2023/04/18 02:45:50;;;;;;;18.63;10.70;;;5.70;99.90;;;;;;5011290;28;20059;-71
2023/04/18 02:48:15;;;;;;;20.10;11.32;;;5.70;99.90;;;;;;5007506;28;20038;-71
2023/04/18 02:50:41;;;;;;;18.27;10.27;;;5.70;99.90;;;;;;5010143;28;20061;-72
2023/04/18 02:53:06;;;;;;;18.52;10.15;;;5.70;99.90;;;;;;5010072;28;20037;-71
2023/04/18 02:55:32;;;;;;;16.63;10.07;;;5.70;99.90;;;;;;5004694;28;20033;-71
2023/04/18 02:57:57;;;;;;;15.00;9.32;;;5.70;99.90;;;;;;5007755;28;20124;-71
2023/04/18 03:00:23;;;;;;;19.55;9.73;;;5.70;99.90;;;;;;5006386;28;20154;-70
2023/04/18 03:02:49;;;;;;;18.55;10.10;;;5.70;99.90;;;;;;4996053;28;20492;-71
2023/04/18 03:05:15;;;;;;;20.42;10.45;;;5.80;99.90;;;;;;5004860;28;20045;-71
2023/04/18 03:07:41;;;;;;;17.00;9.77;;;5.70;99.90;;;;;;4992932;28;20076;-70
2023/04/18 03:10:06;;;;;;;16.85;9.13;;;5.80;99.90;;;;;;5009893;28;20127;-71
2023/04/18 03:12:32;;;;;;;16.77;9.70;;;5.80;99.90;;;;;;5011043;28;20037;-70
2023/04/18 03:14:58;;;;;;;19.02;9.82;;;5.80;99.90;;;;;;5011822;28;20034;-70
2023/04/18 03:17:23;;;;;;;15.52;9.40;;;5.90;99.90;;;;;;4992242;28;20112;-70
2023/04/18 03:19:49;;;;;;;18.30;9.40;;;5.90;99.90;;;;;;5008863;28;20095;-71
2023/04/18 03:22:14;;;;;;;15.23;9.10;;;5.90;99.90;;;;;;5007961;28;20049;-70
2023/04/18 03:24:40;;;;;;;17.48;10.00;;;5.90;99.90;;;;;;5012272;28;20045;-70
2023/04/18 03:27:06;;;;;;;19.23;9.60;;;6.00;99.90;;;;;;5008716;28;20038;-70
2023/04/18 03:29:31;;;;;;;17.08;9.25;;;6.00;99.90;;;;;;5012007;28;20050;-71
2023/04/18 03:31:57;;;;;;;18.50;9.73;;;6.10;99.90;;;;;;5009976;28;20051;-71
2023/04/18 03:34:22;;;;;;;17.65;9.85;;;6.10;99.90;;;;;;5010903;28;20095;-69
2023/04/18 03:36:48;;;;;;;15.18;9.55;;;6.10;99.90;;;;;;5011238;28;20049;-70
2023/04/18 03:39:13;;;;;;;21.13;10.05;;;6.10;99.90;;;;;;5008353;28;20030;-69
2023/04/18 03:41:39;;;;;;;20.10;9.43;;;6.20;99.90;;;;;;4995444;28;20033;-71
2023/04/18 03:44:05;;;;;;;19.75;10.10;;;6.20;99.90;;;;;;5011675;28;20056;-72
2023/04/18 03:46:30;;;;;;;18.55;9.50;;;6.10;99.90;;;;;;5005317;28;23170;-74
2023/04/18 03:48:56;;;;;;;17.60;9.30;;;6.20;99.90;;;;;;4992617;28;20136;-70
2023/04/18 03:51:21;;;;;;;15.65;8.75;;;6.10;99.90;;;;;;5009536;28;20160;-70
2023/04/18 03:53:47;;;;;;;17.85;9.50;;;6.10;99.90;;;;;;5013082;28;20049;-72
2023/04/18 03:56:12;;;;;;;22.58;10.00;;;6.10;99.90;;;;;;5010703;28;20482;-70
2023/04/18 03:58:38;;;;;;;16.10;9.07;;;6.00;99.90;;;;;;5013375;28;20053;-71
2023/04/18 04:01:05;;;;;;;15.07;8.98;;;6.00;99.90;;;;;;5026578;28;20041;-71
2023/04/18 04:03:31;;;;;;;20.08;9.85;;;6.00;99.90;;;;;;5007768;28;20037;-71
2023/04/18 04:05:56;;;;;;;21.13;9.95;;;6.10;99.90;;;;;;5009940;28;20087;-71
2023/04/18 04:08:22;;;;;;;20.83;9.65;;;6.10;99.90;;;;;;5011599;28;20029;-70
2023/04/18 04:10:47;;;;;;;19.10;10.38;;;6.10;99.90;;;;;;5012085;28;20475;-69
2023/04/18 04:13:13;;;;;;;15.93;9.10;;;6.10;99.90;;;;;;5014005;28;20038;-70
2023/04/18 04:15:38;;;;;;;17.27;9.18;;;6.20;99.90;;;;;;5010970;28;20068;-71
2023/04/18 04:18:05;;;;;;;15.88;8.57;;;6.20;99.90;;;;;;5011587;28;20045;-70
2023/04/18 04:20:31;;;;;;;15.10;8.80;;;6.20;99.90;;;;;;5007299;28;20041;-68
2023/04/18 04:22:58;;;;;;;16.05;8.68;;;6.30;99.90;;;;;;4994872;28;20049;-72
2023/04/18 04:25:27;;;;;;;16.60;8.40;;;6.30;99.90;;;;;;5013430;28;20116;-70
2023/04/18 04:27:53;;;;;;;16.67;9.73;;;6.30;99.90;;;;;;5002317;28;20041;-71
2023/04/18 04:30:19;;;;;;;17.38;8.90;;;6.30;99.90;;;;;;4999550;28;20685;-71
2023/04/18 04:32:46;;;;;;;14.55;8.77;;;6.30;99.90;;;;;;5007677;28;20033;-69
2023/04/18 04:35:12;;;;;;;17.58;9.20;;;6.30;99.90;;;;;;4981881;28;20128;-70
2023/04/18 04:37:40;;;;;;;16.35;8.98;;;6.30;99.90;;;;;;5000826;28;20037;-70
2023/04/18 04:40:08;;;;;;;19.73;9.32;;;6.30;99.90;;;;;;4982416;28;20052;-69
2023/04/18 04:42:34;;;;;;;16.85;8.38;;;6.30;99.90;;;;;;5004229;28;20037;-69
2023/04/18 04:45:01;;;;;;;17.95;9.18;;;6.40;99.90;;;;;;5007380;28;20041;-72
2023/04/18 04:47:27;;;;;;;15.23;8.63;;;6.40;99.90;;;;;;5015224;28;20100;-70
2023/04/18 04:49:52;;;;;;;14.20;8.65;;;6.40;99.90;;;;;;5002256;28;20042;-71
2023/04/18 04:52:18;;;;;;;16.88;9.05;;;6.40;99.90;;;;;;5003311;28;20064;-73
2023/04/18 04:54:45;;;;;;;18.85;8.88;;;6.40;99.90;;;;;;5004470;28;20040;-70
2023/04/18 04:57:11;;;;;;;16.70;8.55;;;6.50;99.90;;;;;;4984891;28;20037;-71
2023/04/18 04:59:37;;;;;;;14.75;8.75;;;6.50;99.90;;;;;;5001751;28;20053;-69
2023/04/18 05:02:02;;;;;;;17.75;9.00;;;6.50;99.90;;;;;;4999581;28;20044;-69
2023/04/18 05:04:28;;;;;;;13.55;8.07;;;6.50;99.90;;;;;;4998842;28;20042;-71
2023/04/18 05:06:53;;;;;;;16.77;8.75;;;6.60;99.90;;;;;;4999115;28;20037;-70
2023/04/18 05:09:19;;;;;;;17.17;8.80;;;6.60;99.90;;;;;;4995960;28;20049;-71
2023/04/18 05:11:48;;;;;;;16.05;8.88;;;6.60;99.90;;;;;;5000923;28;20037;-70
2023/04/18 05:14:13;;;;;;;16.02;9.18;;;6.60;99.90;;;;;;4996788;28;20034;-69
2023/04/18 05:16:39;;;;;;;14.75;8.95;;;6.60;99.90;;;;;;5006209;28;20041;-71
2023/04/18 05:19:04;;;;;;;14.95;9.00;;;6.60;99.90;;;;;;4998874;28;20088;-72
2023/04/18 05:21:30;;;;;;;15.32;8.88;;;6.60;99.90;;;;;;4995032;28;20038;-70
2023/04/18 05:23:56;;;;;;;14.05;8.77;;;6.70;99.90;;;;;;4985343;28;20385;-71
2023/04/18 05:26:22;;;;;;;16.67;9.25;;;6.70;99.90;;;;;;5014265;28;20049;-72
2023/04/18 05:28:48;;;;;;;16.15;8.45;;;6.70;99.90;;;;;;5001941;28;20044;-70
2023/04/18 05:31:13;;;;;;;14.27;8.80;;;6.80;99.90;;;;;;5002605;28;20366;-72
2023/04/18 05:33:39;;;;;;;17.83;10.38;;;6.70;99.90;;;;;;5021030;28;20044;-71
2023/04/18 05:36:06;;;;;;;22.63;9.63;;;6.80;99.90;;;;;;4991612;28;20045;-71
2023/04/18 05:38:32;;;;;;;14.40;8.90;;;6.80;99.90;;;;;;5010062;28;20084;-67
2023/04/18 05:40:59;;;;;;;16.52;8.35;;;6.90;99.90;;;;;;4999534;28;20045;-70
2023/04/18 05:43:25;;;;;;;16.50;9.60;;;6.80;99.90;;;;;;5000427;28;20033;-70
2023/04/18 05:45:53;;;;;;;19.85;9.15;;;6.90;99.90;;;;;;5031268;28;20481;-66
2023/04/18 05:48:21;;;;;;;18.27;9.77;;;6.90;99.90;;;;;;5013526;28;20422;-71
2023/04/18 05:50:46;;;;;;;19.10;9.73;;;6.90;99.90;;;;;;4993488;28;20045;-70
2023/04/18 05:53:12;;;;;;;17.23;10.00;;;7.00;99.90;;;;;;5002940;28;20125;-70
2023/04/18 05:55:39;;;;;;;18.15;8.45;;;7.00;99.90;;;;;;5010940;28;20041;-70
2023/04/18 05:58:05;;;;;;;17.33;9.13;;;7.10;99.90;;;;;;5006211;28;20120;-72
2023/04/18 06:00:31;;;;;;;18.77;9.30;;;7.10;99.90;;;;;;5005398;28;20142;-72
2023/04/18 06:02:56;;;;;;;19.08;9.25;;;7.10;99.90;;;;;;5011356;28;20146;-70
2023/04/18 06:05:22;;;;;;;17.15;9.10;;;7.10;99.90;;;;;;5012429;28;20045;-70
2023/04/18 06:07:48;;;;;;;16.50;9.73;;;7.20;99.90;;;;;;5012322;28;20056;-70
2023/04/18 06:10:14;;;;;;;18.58;10.27;;;7.20;99.90;;;;;;5003328;28;20073;-66
2023/04/18 06:12:40;;;;;;;17.02;9.93;;;7.20;99.90;;;;;;5003043;28;20072;-69
2023/04/18 06:15:06;;;;;;;15.98;9.05;;;7.30;99.90;;;;;;4995508;28;20430;-71
2023/04/18 06:17:33;;;;;;;17.05;10.43;;;7.30;99.90;;;;;;4996336;28;20767;-70
2023/04/18 06:19:58;;;;;;;18.27;9.82;;;7.40;99.90;;;;;;4995945;28;20041;-68
2023/04/18 06:22:24;;;;;;;16.17;10.13;;;7.50;99.90;;;;;;4994718;28;20091;-71
2023/04/18 06:24:49;;;;;;;13.95;8.32;;;7.50;99.90;;;;;;4980212;28;20044;-69
2023/04/18 06:27:15;;;;;;;16.05;9.43;;;7.60;99.80;;;;;;4993848;28;20037;-70
2023/04/18 06:29:42;;;;;;;18.30;9.77;;;7.60;99.90;;;;;;4995524;28;20424;-69
2023/04/18 06:32:07;;;;;;;15.50;9.07;;;7.70;99.90;;;;;;5002492;28;20046;-72
2023/04/18 06:34:33;;;;;;;19.35;9.40;;;7.80;99.90;;;;;;4989603;28;20132;-69
2023/04/18 06:36:59;;;;;;;18.92;9.50;;;7.80;99.70;;;;;;5010176;28;20488;-70
2023/04/18 06:39:24;;;;;;;18.10;9.88;;;7.80;99.60;;;;;;5008176;28;20127;-69
2023/04/18 06:41:50;;;;;;;17.48;9.70;;;8.00;99.70;;;;;;5000161;28;20073;-72
2023/04/18 06:44:15;;;;;;;16.13;7.50;;;8.10;99.50;;;;;;5004512;28;20066;-68
2023/04/18 06:46:41;;;;;;;11.98;8.68;;;8.20;98.70;;;;;;4986048;28;20122;-70
2023/04/18 06:49:07;;;;;;;12.63;7.85;;;8.20;98.30;;;;;;4998803;28;20077;-72
2023/04/18 06:51:33;;;;;;;12.90;8.23;;;8.30;97.70;;;;;;4979936;28;20030;-70
2023/04/18 06:53:58;;;;;;;16.65;9.50;;;8.30;96.50;;;;;;5007534;28;20045;-72
2023/04/18 06:56:24;;;;;;;14.82;8.32;;;8.40;97.00;;;;;;5013185;28;20358;-71
2023/04/18 06:58:51;;;;;;;15.63;8.75;;;8.40;96.10;;;;;;4998460;28;20057;-72
2023/04/18 07:01:17;;;;;;;15.82;9.38;;;8.50;96.00;;;;;;4998067;28;20446;-72
2023/04/18 07:03:43;;;;;;;18.33;9.00;;;8.70;96.20;;;;;;5012661;28;20088;-72
2023/04/18 07:06:09;;;;;;;13.52;8.57;;;8.70;95.20;;;;;;5007660;28;20444;-76
2023/04/18 07:08:35;;;;;;;16.73;9.32;;;8.60;94.00;;;;;;5010541;28;20045;-72
2023/04/18 07:11:01;;;;;;;12.82;8.20;;;8.70;93.50;;;;;;5010191;28;20060;-70
2023/04/18 07:13:26;;;;;;;12.63;8.52;;;8.70;92.50;;;;;;5006169;28;20450;-70
2023/04/18 07:15:52;;;;;;;13.98;8.40;;;8.80;91.90;;;;;;5013732;28;20044;-70
2023/04/18 07:18:17;;;;;;;14.90;8.23;;;8.90;90.80;;;;;;5012313;28;20080;-71
2023/04/18 07:20:43;;;;;;;12.80;8.32;;;9.10;91.10;;;;;;5007176;28;20533;-71
2023/04/18 07:23:09;;;;;;;13.90;8.27;;;9.30;91.30;;;;;;5013109;28;20128;-72
2023/04/18 07:25:35;;;;;;;13.00;8.15;;;9.50;90.60;;;;;;5004734;28;20080;-69
2023/04/18 07:28:01;;;;;;;12.65;8.05;;;9.50;89.30;;;;;;4994728;28;20037;-72
2023/04/18 07:30:26;;;;;;;14.70;8.80;;;9.60;90.20;;;;;;4996111;28;20095;-72
2023/04/18 07:32:52;;;;;;;14.88;9.10;;;9.80;90.20;;;;;;5008635;28;20520;-70
2023/04/18 07:35:18;;;;;;;14.80;8.30;;;10.40;90.10;;;;;;5010457;28;20103;-72
2023/04/18 07:37:43;;;;;;;12.45;8.13;;;10.60;86.50;;;;;;5009321;28;20048;-70
2023/04/18 07:40:10;;;;;;;13.13;8.52;;;10.90;86.70;;;;;;5014312;28;20046;-72
2023/04/18 07:42:35;;;;;;;13.93;7.97;;;11.00;86.60;;;;;;4994196;28;20389;-69
2023/04/18 07:45:01;;;;;;;12.40;7.60;;;11.30;86.70;;;;;;5007812;28;20056;-72
2023/04/18 07:47:27;;;;;;;13.38;8.20;;;11.10;87.10;;;;;;4996705;28;21253;-72
2023/04/18 07:49:53;;;;;;;11.60;7.72;;;11.10;86.60;;;;;;5004369;28;20030;-70
2023/04/18 07:52:18;;;;;;;14.73;7.90;;;11.20;85.80;;;;;;5026368;28;20083;-72
2023/04/18 07:54:44;;;;;;;12.18;7.10;;;11.50;81.90;;;;;;4992589;28;20124;-68
2023/04/18 07:57:10;;;;;;;14.45;7.50;;;11.80;82.00;;;;;;4997978;28;20046;-70
2023/04/18 07:59:35;;;;;;;10.75;7.50;;;11.60;77.70;;;;;;5008875;28;20060;-66
2023/04/18 08:02:01;;;;;;;12.30;8.05;;;11.60;74.10;;;;;;5001464;28;20048;-68
2023/04/18 08:04:27;;;;;;;11.27;7.60;;;11.80;78.20;;;;;;4992534;28;20041;-70
2023/04/18 08:06:53;;;;;;;11.48;7.85;;;11.80;77.60;;;;;;5003445;28;20034;-69
2023/04/18 08:09:19;;;;;;;11.18;7.78;;;11.60;76.60;;;;;;4993592;28;20623;-74
2023/04/18 08:11:45;;;;;;;13.15;7.53;;;11.20;74.10;;;;;;5003937;28;20034;-69
2023/04/18 08:14:10;;;;;;;11.93;7.45;;;11.30;73.50;;;;;;5005609;28;20037;-69
2023/04/18 08:16:36;;;;;;;11.38;7.57;;;11.50;74.70;;;;;;5007866;28;20156;-68
2023/04/18 08:19:02;;;;;;;10.38;7.35;;;11.60;74.10;;;;;;5007813;28;20077;-72
2023/04/18 08:21:27;;;;;;;11.20;6.95;;;11.80;73.50;;;;;;5011914;28;20052;-71
2023/04/18 08:23:53;;;;;;;12.13;7.40;;;11.80;72.50;;;;;;5001278;28;20466;-70
2023/04/18 08:26:18;;;;;;;9.18;6.57;;;11.90;71.70;;;;;;5008460;28;20517;-69
2023/04/18 08:28:44;;;;;;;12.27;6.97;;;11.90;71.60;;;;;;5023265;28;20037;-69
2023/04/18 08:31:14;;;;;;;10.60;7.20;;;11.60;70.40;;;;;;5010084;28;20111;-69
2023/04/18 08:33:40;;;;;;;10.55;6.93;;;11.50;69.60;;;;;;5005542;28;20428;-65
2023/04/18 08:36:05;;;;;;;10.70;7.28;;;11.40;67.90;;;;;;5022598;28;20493;-65
2023/04/18 08:38:31;;;;;;;10.02;6.57;;;11.60;68.00;;;;;;5008347;28;20040;-70
2023/04/18 08:40:57;;;;;;;10.15;6.88;;;12.00;67.70;;;;;;5007309;28;20037;-66
2023/04/18 08:43:24;;;;;;;13.45;6.95;;;12.70;65.40;;;;;;5027460;28;20033;-67
2023/04/18 08:45:51;;;;;;;13.15;7.30;;;13.00;64.70;;;;;;5007975;28;20056;-68
2023/04/18 08:48:17;;;;;;;11.68;6.47;;;12.90;63.30;;;;;;5025199;28;20366;-70
2023/04/18 08:50:43;;;;;;;12.73;7.30;;;13.10;63.90;;;;;;4988374;28;20064;-70
2023/04/18 08:53:09;;;;;;;11.23;7.18;;;13.30;62.90;;;;;;4986108;28;20124;-68
2023/04/18 08:55:36;;;;;;;8.77;6.07;;;13.60;63.30;;;;;;5007787;28;20601;-73
2023/04/18 08:58:05;;;;;;;14.00;7.30;;;14.20;62.70;;;;;;5009169;28;20087;-70
2023/04/18 09:00:31;;;;;;;9.38;6.38;;;14.30;61.00;;;;;;5020612;28;20120;-69
2023/04/18 09:02:57;;;;;;;12.38;7.22;;;14.90;61.80;;;;;;5009342;28;20041;-69
2023/04/18 09:05:25;;;;;;;8.43;6.57;;;15.10;61.60;;;;;;4995083;28;20048;-70
2023/04/18 09:07:52;;;;;;;9.18;6.03;;;15.40;61.20;;;;;;5007668;28;20045;-69
2023/04/18 09:10:29;;;;;;;7.57;5.65;;;15.90;61.10;;;;;;5006266;28;20050;-71
2023/04/18 09:12:56;;;;;;;7.93;5.35;;;15.70;55.30;;;;;;5014438;28;20156;-68
2023/04/18 09:15:25;;;;;;;7.72;5.65;;;15.50;56.90;;;;;;5014794;28;20107;-72
2023/04/18 09:17:52;;;;;;;8.50;5.60;;;15.50;57.30;;;;;;4999399;28;20096;-70
2023/04/18 09:20:36;;;;;;;8.13;5.88;;;15.30;57.90;;;;;;5010193;28;20053;-68
2023/04/18 09:23:15;;;;;;;8.63;6.28;;;15.00;56.60;;;;;;4998811;28;20041;-69
2023/04/18 09:25:41;;;;;;;10.30;6.35;;;14.60;56.70;;;;;;4996931;28;20505;-72
2023/04/18 09:28:28;;;;;;;9.05;6.35;;;14.30;59.00;;;;;;4979896;28;20042;-68
2023/04/18 09:30:58;;;;;;;9.60;6.03;;;14.40;58.00;;;;;;5019657;28;20038;-68
2023/04/18 09:33:26;;;;;;;;;;;14.10;58.70;;;;;;5007463;28;20033;-68
2023/04/18 09:35:52;;;;;;;8.55;6.18;;;13.80;54.80;;;;;;4981921;28;19979;-66
2023/04/18 09:38:18;;;;;;;8.95;6.57;;;13.20;57.50;;;;;;5014020;28;20079;-70
2023/04/18 09:40:43;;;;;;;7.13;5.65;;;13.10;58.50;;;;;;5010984;28;20045;-73
2023/04/18 09:43:19;;;;;;;7.07;5.10;;;13.10;59.00;;;;;;5014145;28;20049;-69
2023/04/18 09:45:48;;;;;;;8.02;6.00;;;13.00;57.70;;;;;;4994360;28;20055;-64
2023/04/18 09:48:14;;;;;;;9.13;6.20;;;13.00;59.60;;;;;;5011075;28;20047;-68
2023/04/18 09:50:41;;;;;;;15.15;6.28;;;13.00;58.80;;;;;;5030319;28;20041;-68
2023/04/18 09:53:09;;;;;;;8.23;5.88;;;13.10;59.90;;;;;;5011416;28;20046;-64
2023/04/18 09:55:37;;;;;;;9.20;6.28;;;13.30;59.20;;;;;;5028710;28;20535;-70
2023/04/18 09:58:03;;;;;;;10.23;6.22;;;13.50;59.40;;;;;;5011781;28;20082;-69
2023/04/18 10:00:29;;;;;;;8.18;5.93;;;13.90;58.80;;;;;;5011245;28;20053;-67
2023/04/18 10:03:06;;;;;;;10.23;6.03;;;13.90;57.90;;;;;;5010409;28;20167;-68
2023/04/18 10:05:38;;;;;;;7.68;5.70;;;14.40;57.60;;;;;;5011442;28;20047;-71
2023/04/18 10:08:05;;;;;;;8.50;5.95;;;14.70;56.50;;;;;;5011474;28;20041;-68
2023/04/18 10:10:31;;;;;;;6.88;5.25;;;14.70;55.10;;;;;;5013873;28;20037;-69
2023/04/18 10:12:59;;;;;;;8.00;5.78;;;15.00;55.70;;;;;;5002189;28;20478;-70
2023/04/18 10:15:27;;;;;;;6.20;5.07;;;14.90;55.90;;;;;;4987237;28;20038;-73
2023/04/18 10:18:01;;;;;;;9.80;5.93;;;14.70;53.20;;;;;;4997713;28;20038;-65
2023/04/18 10:20:28;;;;;;;8.50;5.88;;;14.90;54.20;;;;;;5006627;28;20049;-69
2023/04/18 10:22:55;;;;;;;7.47;5.30;;;14.70;53.70;;;;;;4992345;28;20892;-65
2023/04/18 10:25:36;;;;;;;8.30;5.68;;;14.60;54.60;;;;;;4999717;28;20717;-72
2023/04/18 10:28:06;;;;;;;7.00;5.60;;;14.50;55.90;;;;;;4996173;28;20055;-71
2023/04/18 10:30:52;;;;;;;8.10;5.50;;;14.30;55.10;;;;;;4998248;28;20081;-71
2023/04/18 10:33:37;;;;;;;8.50;5.47;;;14.20;55.10;;;;;;4992057;28;20076;-69
2023/04/18 10:36:10;;;;;;;6.45;5.25;;;14.40;56.80;;;;;;4985933;28;20045;-70
2023/04/18 10:38:55;;;;;;;7.93;5.90;;;14.40;55.60;;;;;;4995199;28;20103;-68
2023/04/18 10:41:33;;;;;;;7.53;5.53;;;14.30;54.70;;;;;;5005524;28;20033;-69
2023/04/18 10:44:07;;;;;;;9.40;6.30;;;14.00;53.30;;;;;;4997081;28;20052;-69
2023/04/18 10:46:34;;;;;;;7.95;6.05;;;14.00;53.20;;;;;;4993225;28;20185;-71
2023/04/18 10:49:15;;;;;;;9.57;5.75;;;14.10;54.00;;;;;;4989345;28;20133;-73
2023/04/18 10:51:43;;;;;;;8.32;6.18;;;14.10;54.30;;;;;;5011303;28;20029;-65
2023/04/18 10:54:15;;;;;;;8.50;5.85;;;14.00;54.20;;;;;;4993704;28;20042;-71
2023/04/18 10:56:52;;;;;;;9.73;7.03;;;14.00;55.40;;;;;;5011016;28;20435;-69
2023/04/18 10:59:24;;;;;;;11.32;7.07;;;13.90;54.80;;;;;;5027382;28;20072;-72
2023/04/18 11:02:06;;;;;;;10.57;7.47;;;14.10;55.40;;;;;;5006570;28;20069;-72
2023/04/18 11:04:32;;;;;;;11.45;6.70;;;13.90;53.80;;;;;;5004915;28;20885;-72
2023/04/18 11:06:57;;;;;;;10.93;7.38;;;14.00;54.80;;;;;;4991384;28;20069;-71
2023/04/18 11:09:24;;;;;;;9.80;6.85;;;14.00;54.90;;;;;;5012681;28;20038;-68
2023/04/18 11:12:05;;;;;;;12.93;7.88;;;14.10;55.30;;;;;;5007822;28;20037;-69
2023/04/18 11:14:48;;;;;;;11.38;7.55;;;14.40;54.50;;;;;;5005421;28;20440;-68
2023/04/18 11:17:20;;;;;;;11.38;7.00;;;14.20;54.50;;;;;;5012670;28;20045;-68
2023/04/18 11:19:46;;;;;;;11.20;6.90;;;14.30;55.80;;;;;;5003893;28;20037;-68
2023/04/18 11:22:13;;;;;;;9.82;7.35;;;14.20;54.10;;;;;;4997141;28;20448;-73
2023/04/18 11:24:38;;;;;;;11.07;7.68;;;14.10;54.60;;;;;;5011331;28;20746;-65
2023/04/18 11:27:04;;;;;;;11.15;7.32;;;13.80;53.00;;;;;;4998281;28;20056;-68
2023/04/18 11:29:30;;;;;;;14.68;8.30;;;14.10;54.40;;;;;;4989939;28;20082;-69
2023/04/18 11:31:55;;;;;;;11.73;7.75;;;14.10;54.00;;;;;;5002187;28;20597;-69
2023/04/18 11:34:21;;;;;;;15.73;8.10;;;14.00;53.70;;;;;;4977230;28;20041;-68
2023/04/18 11:36:51;;;;;;;11.93;7.30;;;14.00;53.70;;;;;;4991852;28;20148;-71
2023/04/18 11:39:17;;;;;;;10.55;7.80;;;14.20;53.20;;;;;;5011042;28;20152;-69
2023/04/18 11:41:49;;;;;;;11.57;7.63;;;14.20;54.00;;;;;;5006707;28;20037;-70
2023/04/18 11:44:22;;;;;;;14.00;7.80;;;14.40;54.10;;;;;;4989967;28;20057;-67
2023/04/18 11:46:49;;;;;;;11.20;7.60;;;14.30;52.90;;;;;;4999970;28;20049;-71
2023/04/18 11:49:31;;;;;;;12.95;8.27;;;14.30;52.90;;;;;;4995944;28;20125;-69
2023/04/18 11:52:00;;;;;;;12.60;7.95;;;14.40;52.10;;;;;;5001191;28;20543;-68
2023/04/18 11:54:40;;;;;;;11.43;7.97;;;14.40;53.40;;;;;;5010238;28;20151;-70
2023/04/18 11:57:18;;;;;;;12.57;8.00;;;14.60;53.50;;;;;;4989833;28;20397;-68
2023/04/18 11:59:58;;;;;;;11.90;7.57;;;14.60;52.80;;;;;;5010512;28;20065;-71
2023/04/18 12:02:26;;;;;;;12.40;8.20;;;14.70;53.20;;;;;;5027221;28;20094;-70
2023/04/18 12:04:59;;;;;;;12.60;8.02;;;14.40;51.60;;;;;;5005774;28;20622;-69
2023/04/18 12:07:38;;;;;;;12.45;8.85;;;14.60;51.70;;;;;;5007777;28;20111;-69
2023/04/18 12:10:06;;;;;;;14.65;9.32;;;14.60;52.20;;;;;;5009425;28;20555;-69
2023/04/18 12:12:32;;;;;;;10.27;7.38;;;14.70;53.70;;;;;;5003390;28;20042;-67
2023/04/18 12:15:12;;;;;;;11.45;8.02;;;14.50;51.60;;;;;;5000857;28;20491;-69
2023/04/18 12:17:38;;;;;;;13.05;7.65;;;14.40;51.30;;;;;;5005283;28;20129;-67
2023/04/18 12:20:06;;;;;;;13.85;9.07;;;14.20;51.50;;;;;;5023401;28;20152;-70
2023/04/18 12:22:48;;;;;;;14.75;7.95;;;14.30;52.20;;;;;;5006986;28;20217;-68
2023/04/18 12:25:18;;;;;;;11.30;8.05;;;14.50;53.30;;;;;;5008551;28;20042;-64
2023/04/18 12:27:50;;;;;;;11.00;7.03;;;14.80;52.80;;;;;;5006624;28;20504;-65
2023/04/18 12:30:18;;;;;;;12.82;7.53;;;14.60;51.80;;;;;;5007067;28;20046;-68
2023/04/18 12:32:44;;;;;;;9.20;6.00;;;14.60;52.30;;;;;;4991426;28;20033;-69
2023/04/18 12:35:10;;;;;;;7.93;5.53;;;14.90;51.80;;;;;;4986131;28;20053;-67
2023/04/18 12:37:35;;;;;;;8.82;5.88;;;15.00;51.20;;;;;;5006653;28;20072;-67
2023/04/18 12:40:01;;;;;;;8.20;5.50;;;15.20;51.00;;;;;;5012194;28;20507;-68
2023/04/18 12:42:27;;;;;;;8.45;5.93;;;14.90;50.70;;;;;;5001325;28;20041;-69
2023/04/18 12:44:52;;;;;;;8.77;5.78;;;15.30;51.20;;;;;;5006410;28;20127;-69